createdAt,value
2022-09-11T00:01:50.133Z,13.20
2022-09-11T00:04:16.502Z,13.28
2022-09-11T00:06:42.803Z,13.30
2022-09-11T00:09:09.303Z,13.27
2022-09-11T00:11:40.133Z,13.27
2022-09-11T00:14:06.717Z,13.28
2022-09-11T00:16:39.089Z,13.27
2022-09-11T00:19:08.695Z,13.20
2022-09-11T00:21:35.653Z,13.28
2022-09-11T00:24:02.745Z,13.28
2022-09-11T00:26:29.063Z,13.28
2022-09-11T00:28:56.191Z,13.30
2022-09-11T00:31:26.419Z,13.29
2022-09-11T00:33:52.928Z,13.29
2022-09-11T00:36:22.305Z,13.29
2022-09-11T00:38:49.643Z,13.27
2022-09-11T00:41:30.651Z,13.23
2022-09-11T00:44:27.460Z,13.16
2022-09-11T00:46:59.766Z,13.15
2022-09-11T00:49:43.015Z,13.13
2022-09-11T00:52:18.036Z,13.09
2022-09-11T00:54:51.592Z,13.03
2022-09-11T00:57:22.632Z,12.98
2022-09-11T00:59:49.891Z,12.91
2022-09-11T01:02:23.224Z,12.89
2022-09-11T01:04:52.132Z,12.84
2022-09-11T01:07:21.035Z,12.82
2022-09-11T01:09:47.818Z,12.72
2022-09-11T01:12:26.783Z,12.75
2022-09-11T01:15:07.460Z,12.72
2022-09-11T01:17:42.841Z,12.73
2022-09-11T01:20:22.748Z,12.73
2022-09-11T01:23:12.326Z,12.70
2022-09-11T01:25:47.636Z,12.64
2022-09-11T01:28:20.003Z,12.56
2022-09-11T01:30:53.909Z,12.45
2022-09-11T01:33:34.722Z,12.47
2022-09-11T01:36:06.208Z,12.42
2022-09-11T01:38:41.231Z,12.37
2022-09-11T01:41:19.386Z,12.32
2022-09-11T01:43:54.485Z,12.28
2022-09-11T01:46:23.808Z,12.21
2022-09-11T01:49:18.065Z,12.16
2022-09-11T01:51:48.482Z,12.04
2022-09-11T01:54:19.341Z,12.06
2022-09-11T01:56:50.328Z,12.00
2022-09-11T01:59:19.860Z,11.97
2022-09-11T02:01:53.413Z,12.02
2022-09-11T02:04:28.416Z,12.02
2022-09-11T02:07:01.675Z,12.00
2022-09-11T02:09:33.346Z,11.91
2022-09-11T02:12:06.534Z,11.95
2022-09-11T02:14:41.748Z,11.85
2022-09-11T02:17:11.007Z,11.88
2022-09-11T02:19:37.736Z,11.82
2022-09-11T02:22:04.763Z,11.73
2022-09-11T02:24:31.248Z,11.71
2022-09-11T02:27:02.673Z,11.75
2022-09-11T02:29:29.277Z,11.73
2022-09-11T02:31:55.820Z,11.70
2022-09-11T02:34:28.339Z,11.69
2022-09-11T02:37:25.732Z,11.61
2022-09-11T02:40:13.620Z,11.68
2022-09-11T02:43:01.612Z,11.68
2022-09-11T02:45:40.105Z,11.67
2022-09-11T02:48:06.408Z,11.66
2022-09-11T02:50:57.484Z,11.58
2022-09-11T02:53:47.904Z,11.49
2022-09-11T02:56:28.650Z,11.41
2022-09-11T02:58:58.765Z,11.38
2022-09-11T03:01:25.428Z,11.43
2022-09-11T03:03:51.782Z,11.44
2022-09-11T03:06:23.923Z,11.43
2022-09-11T03:08:50.266Z,11.49
2022-09-11T03:11:17.070Z,11.47
2022-09-11T03:13:44.555Z,11.48
2022-09-11T03:16:11.746Z,11.45
2022-09-11T03:18:38.580Z,11.42
2022-09-11T03:21:05.566Z,11.40
2022-09-11T03:23:31.935Z,11.31
2022-09-11T03:25:58.230Z,11.32
2022-09-11T03:28:24.603Z,11.28
2022-09-11T03:30:51.048Z,11.26
2022-09-11T03:33:17.365Z,11.22
2022-09-11T03:35:44.184Z,11.18
2022-09-11T03:38:11.042Z,11.16
2022-09-11T03:40:37.993Z,11.13
2022-09-11T03:43:04.371Z,11.09
2022-09-11T03:45:30.814Z,11.06
2022-09-11T03:47:57.171Z,11.01
2022-09-11T03:50:23.551Z,10.90
2022-09-11T03:52:49.929Z,10.92
2022-09-11T03:55:16.583Z,10.94
2022-09-11T03:57:42.920Z,10.94
2022-09-11T04:00:09.851Z,10.90
2022-09-11T04:02:36.193Z,10.86
2022-09-11T04:05:02.524Z,10.92
2022-09-11T04:07:28.880Z,10.85
2022-09-11T04:09:55.203Z,10.90
2022-09-11T04:12:21.525Z,10.88
2022-09-11T04:14:47.841Z,10.85
2022-09-11T04:17:14.191Z,10.83
2022-09-11T04:19:40.474Z,10.77
2022-09-11T04:22:07.071Z,10.78
2022-09-11T04:24:33.375Z,10.78
2022-09-11T04:27:00.856Z,10.78
2022-09-11T04:29:28.274Z,10.86
2022-09-11T04:31:54.700Z,10.84
2022-09-11T04:34:21.062Z,10.84
2022-09-11T04:36:47.425Z,10.77
2022-09-11T04:39:13.993Z,10.82
2022-09-11T04:41:40.323Z,10.85
2022-09-11T04:44:06.698Z,10.83
2022-09-11T04:46:33.084Z,10.86
2022-09-11T04:48:59.380Z,10.88
2022-09-11T04:51:34.236Z,10.88
2022-09-11T04:54:01.395Z,10.90
2022-09-11T04:56:32.989Z,10.90
2022-09-11T04:59:05.521Z,10.91
2022-09-11T05:01:32.995Z,10.92
2022-09-11T05:03:59.864Z,10.87
2022-09-11T05:06:26.190Z,10.92
2022-09-11T05:08:52.490Z,10.83
2022-09-11T05:11:20.066Z,10.88
2022-09-11T05:13:46.962Z,10.96
2022-09-11T05:16:16.809Z,10.98
2022-09-11T05:18:49.114Z,10.96
2022-09-11T05:21:16.326Z,10.92
2022-09-11T05:23:42.878Z,10.95
2022-09-11T05:26:33.294Z,11.00
2022-09-11T05:29:02.339Z,11.00
2022-09-11T05:31:28.863Z,11.00
2022-09-11T05:33:56.312Z,11.04
2022-09-11T05:36:24.022Z,11.07
2022-09-11T05:38:50.495Z,11.11
2022-09-11T05:41:16.843Z,11.17
2022-09-11T05:43:43.319Z,11.22
2022-09-11T05:46:14.623Z,11.30
2022-09-11T05:48:41.246Z,11.35
2022-09-11T05:51:16.646Z,11.42
2022-09-11T05:53:43.136Z,11.40
2022-09-11T05:56:18.037Z,11.56
2022-09-11T05:58:45.963Z,11.66
2022-09-11T06:01:18.114Z,11.75
2022-09-11T06:03:45.100Z,11.88
2022-09-11T06:06:12.585Z,11.89
2022-09-11T06:08:40.628Z,12.08
2022-09-11T06:11:08.154Z,12.27
2022-09-11T06:13:36.849Z,12.35
2022-09-11T06:16:03.304Z,12.52
2022-09-11T06:18:30.097Z,12.67
2022-09-11T06:21:00.393Z,12.81
2022-09-11T06:23:27.083Z,12.96
2022-09-11T06:25:53.735Z,13.06
2022-09-11T06:28:23.835Z,13.29
2022-09-11T06:30:50.930Z,13.45
2022-09-11T06:33:17.432Z,13.55
2022-09-11T06:35:43.762Z,13.71
2022-09-11T06:38:10.058Z,13.90
2022-09-11T06:40:37.123Z,14.08
2022-09-11T06:43:03.443Z,14.22
2022-09-11T06:45:29.811Z,14.45
2022-09-11T06:47:56.191Z,14.54
2022-09-11T06:50:22.508Z,14.69
2022-09-11T06:52:48.801Z,14.78
2022-09-11T06:55:15.124Z,14.93
2022-09-11T06:57:42.170Z,15.04
2022-09-11T07:00:09.152Z,15.12
2022-09-11T07:02:35.466Z,15.21
2022-09-11T07:05:01.776Z,15.27
2022-09-11T07:07:28.080Z,15.41
2022-09-11T07:09:54.413Z,15.52
2022-09-11T07:12:20.717Z,15.61
2022-09-11T07:14:47.012Z,15.67
2022-09-11T07:17:13.375Z,15.84
2022-09-11T07:19:39.676Z,16.00
2022-09-11T07:22:06.019Z,16.07
2022-09-11T07:24:32.372Z,16.19
2022-09-11T07:26:58.684Z,16.31
2022-09-11T07:29:25.159Z,16.53
2022-09-11T07:31:51.476Z,16.75
2022-09-11T07:34:17.958Z,16.98
2022-09-11T07:36:44.282Z,17.07
2022-09-11T07:39:10.702Z,17.21
2022-09-11T07:41:37.079Z,17.43
2022-09-11T07:44:03.611Z,17.61
2022-09-11T07:46:29.924Z,17.76
2022-09-11T07:48:56.260Z,17.96
2022-09-11T07:51:22.703Z,18.14
2022-09-11T07:53:51.209Z,18.30
2022-09-11T07:56:23.768Z,18.46
2022-09-11T07:58:51.585Z,18.80
2022-09-11T08:01:21.172Z,19.12
2022-09-11T08:03:47.794Z,19.47
2022-09-11T08:06:21.412Z,19.71
2022-09-11T08:08:52.369Z,19.85
2022-09-11T08:11:18.835Z,19.88
2022-09-11T08:13:50.520Z,19.99
2022-09-11T08:16:18.015Z,20.44
2022-09-11T08:18:45.798Z,21.13
2022-09-11T08:21:13.191Z,21.91
2022-09-11T08:23:42.183Z,22.61
2022-09-11T08:26:14.334Z,23.28
2022-09-11T08:28:41.884Z,23.83
2022-09-11T08:31:08.980Z,24.51
2022-09-11T08:33:35.603Z,25.11
2022-09-11T08:36:05.957Z,25.58
2022-09-11T08:38:32.993Z,25.84
2022-09-11T08:41:10.533Z,25.86
2022-09-11T08:43:37.802Z,26.05
2022-09-11T08:46:07.963Z,26.30
2022-09-11T08:48:40.695Z,26.72
2022-09-11T08:51:13.863Z,27.11
2022-09-11T08:53:40.327Z,27.40
2022-09-11T08:56:15.124Z,27.83
2022-09-11T08:59:15.552Z,28.17
2022-09-11T09:02:15.440Z,28.62
2022-09-11T09:04:49.863Z,28.99
2022-09-11T09:07:37.043Z,29.37
2022-09-11T09:10:18.957Z,29.66
2022-09-11T09:12:59.472Z,29.73
2022-09-11T09:15:57.796Z,29.59
2022-09-11T09:18:30.963Z,29.31
2022-09-11T09:21:10.491Z,29.20
2022-09-11T09:23:44.815Z,29.28
2022-09-11T09:26:17.581Z,29.17
2022-09-11T09:28:46.941Z,29.02
2022-09-11T09:31:19.445Z,29.08
2022-09-11T09:34:14.807Z,29.01
2022-09-11T09:36:43.824Z,29.03
2022-09-11T09:39:13.812Z,28.98
2022-09-11T09:41:58.542Z,28.90
2022-09-11T09:44:36.919Z,28.49
2022-09-11T09:47:04.469Z,28.39
2022-09-11T09:49:34.032Z,28.20
2022-09-11T09:52:13.994Z,27.98
2022-09-11T09:54:40.448Z,27.71
2022-09-11T09:57:10.250Z,27.40
2022-09-11T09:59:55.804Z,27.03
2022-09-11T10:02:43.766Z,26.60
2022-09-11T10:05:13.125Z,26.26
2022-09-11T10:07:47.603Z,25.99
2022-09-11T10:10:24.507Z,25.73
2022-09-11T10:12:51.074Z,25.77
2022-09-11T10:15:20.783Z,26.01
2022-09-11T10:17:47.128Z,26.10
2022-09-11T10:20:16.249Z,26.10
2022-09-11T10:22:42.709Z,26.11
2022-09-11T10:25:15.286Z,26.11
2022-09-11T10:27:44.313Z,26.05
2022-09-11T10:30:40.343Z,26.13
2022-09-11T10:33:28.964Z,25.90
2022-09-11T10:35:56.099Z,25.92
2022-09-11T10:38:36.909Z,25.94
2022-09-11T10:41:16.323Z,25.97
2022-09-11T10:43:48.770Z,26.16
2022-09-11T10:46:18.055Z,26.41
2022-09-11T10:48:56.320Z,26.63
2022-09-11T10:51:24.820Z,26.70
2022-09-11T10:54:13.211Z,26.67
2022-09-11T10:56:49.079Z,26.34
2022-09-11T10:59:21.116Z,26.06
2022-09-11T11:01:47.528Z,25.72
2022-09-11T11:04:14.111Z,25.43
2022-09-11T11:07:16.115Z,25.12
2022-09-11T11:09:51.067Z,24.83
2022-09-11T11:12:52.616Z,24.56
2022-09-11T11:15:18.830Z,24.54
2022-09-11T11:17:54.477Z,24.74
2022-09-11T11:20:39.418Z,24.96
2022-09-11T11:23:22.639Z,25.12
2022-09-11T11:26:09.976Z,25.33
2022-09-11T11:28:48.398Z,25.44
2022-09-11T11:31:33.659Z,25.23
2022-09-11T11:34:41.156Z,25.06
2022-09-11T11:37:16.190Z,25.06
2022-09-11T11:39:59.245Z,25.33
2022-09-11T11:42:37.795Z,25.35
2022-09-11T11:45:30.845Z,25.51
2022-09-11T11:48:03.843Z,25.64
2022-09-11T11:50:39.340Z,25.89
2022-09-11T11:53:14.119Z,25.95
2022-09-11T11:56:15.645Z,25.86
2022-09-11T11:58:49.566Z,25.95
2022-09-11T12:01:33.013Z,25.83
2022-09-11T12:04:09.937Z,25.76
2022-09-11T12:06:36.274Z,25.78
2022-09-11T12:09:05.032Z,25.96
2022-09-11T12:11:32.975Z,26.16
2022-09-11T12:14:00.399Z,26.35
2022-09-11T12:16:29.224Z,26.51
2022-09-11T12:19:05.470Z,26.26
2022-09-11T12:21:31.798Z,26.23
2022-09-11T12:23:58.131Z,25.97
2022-09-11T12:26:26.506Z,25.72
2022-09-11T12:29:11.120Z,25.86
2022-09-11T12:31:49.606Z,25.53
2022-09-11T12:34:17.763Z,25.49
2022-09-11T12:36:49.956Z,25.65
2022-09-11T12:39:16.194Z,25.75
2022-09-11T12:41:42.624Z,25.71
2022-09-11T12:44:49.047Z,25.57
2022-09-11T12:47:26.569Z,25.32
2022-09-11T12:50:14.187Z,25.16
2022-09-11T12:52:43.496Z,25.08
2022-09-11T12:55:30.224Z,24.96
2022-09-11T12:57:59.787Z,24.82
2022-09-11T13:00:47.946Z,24.64
2022-09-11T13:03:24.424Z,24.58
2022-09-11T13:06:03.952Z,24.36
2022-09-11T13:08:37.006Z,24.19
2022-09-11T13:11:42.259Z,23.95
2022-09-11T13:14:27.450Z,23.72
2022-09-11T13:17:02.207Z,23.58
2022-09-11T13:19:33.309Z,23.45
2022-09-11T13:22:00.020Z,23.32
2022-09-11T13:24:31.738Z,23.19
2022-09-11T13:26:57.944Z,23.22
2022-09-11T13:29:27.227Z,23.38
2022-09-11T13:31:54.652Z,23.28
2022-09-11T13:34:23.316Z,23.18
2022-09-11T13:36:54.590Z,23.17
2022-09-11T13:39:25.223Z,23.16
2022-09-11T13:42:00.788Z,23.00
2022-09-11T13:44:32.351Z,22.76
2022-09-11T13:46:59.011Z,22.67
2022-09-11T13:49:37.535Z,22.53
2022-09-11T13:52:06.075Z,22.40
2022-09-11T13:54:40.740Z,22.38
2022-09-11T13:57:19.083Z,22.29
2022-09-11T13:59:49.538Z,22.18
2022-09-11T14:02:33.956Z,22.11
2022-09-11T14:05:20.323Z,22.11
2022-09-11T14:08:02.567Z,22.16
2022-09-11T14:10:43.747Z,22.11
2022-09-11T14:13:22.161Z,22.04
2022-09-11T14:16:35.166Z,22.05
2022-09-11T14:19:07.277Z,22.04
2022-09-11T14:21:36.496Z,22.01
2022-09-11T14:24:04.766Z,21.96
2022-09-11T14:26:40.032Z,21.96
2022-09-11T14:29:30.387Z,21.93
2022-09-11T14:32:29.766Z,21.83
2022-09-11T14:34:56.154Z,21.74
2022-09-11T14:37:25.242Z,21.69
2022-09-11T14:39:59.685Z,21.54
2022-09-11T14:42:29.660Z,21.46
2022-09-11T14:44:55.974Z,21.50
2022-09-11T14:47:24.680Z,21.48
2022-09-11T14:49:52.651Z,21.49
2022-09-11T14:52:21.794Z,21.58
2022-09-11T14:54:49.023Z,21.64
2022-09-11T14:57:28.875Z,21.66
2022-09-11T14:59:55.273Z,21.71
2022-09-11T15:02:23.819Z,21.71
2022-09-11T15:04:51.910Z,21.80
2022-09-11T15:07:19.621Z,21.98
2022-09-11T15:09:46.258Z,22.13
2022-09-11T15:12:14.254Z,22.19
2022-09-11T15:14:58.516Z,22.41
2022-09-11T15:17:26.450Z,22.62
2022-09-11T15:19:52.878Z,22.86
2022-09-11T15:22:19.480Z,23.09
2022-09-11T15:24:45.857Z,23.24
2022-09-11T15:27:12.236Z,23.29
2022-09-11T15:29:38.551Z,23.40
2022-09-11T15:32:05.397Z,23.52
2022-09-11T15:34:31.759Z,23.56
2022-09-11T15:36:58.098Z,23.63
2022-09-11T15:39:24.448Z,23.67
2022-09-11T15:41:50.969Z,23.65
2022-09-11T15:44:22.553Z,23.63
2022-09-11T15:46:50.017Z,23.59
2022-09-11T15:49:17.687Z,23.44
2022-09-11T15:51:44.011Z,23.33
2022-09-11T15:54:11.752Z,23.27
2022-09-11T15:56:38.103Z,23.11
2022-09-11T15:59:04.563Z,23.02
2022-09-11T16:01:33.483Z,22.81
2022-09-11T16:04:02.941Z,22.71
2022-09-11T16:06:31.934Z,22.56
2022-09-11T16:08:59.948Z,22.44
2022-09-11T16:11:26.451Z,22.34
2022-09-11T16:13:53.408Z,22.19
2022-09-11T16:16:20.424Z,22.10
2022-09-11T16:18:46.880Z,21.95
2022-09-11T16:21:15.033Z,21.85
2022-09-11T16:23:42.125Z,21.81
2022-09-11T16:26:14.089Z,21.70
2022-09-11T16:28:40.582Z,21.62
2022-09-11T16:31:07.844Z,21.60
2022-09-11T16:33:37.385Z,21.54
2022-09-11T16:36:06.406Z,21.44
2022-09-11T16:38:34.037Z,21.43
2022-09-11T16:41:01.550Z,21.43
2022-09-11T16:43:28.015Z,21.36
2022-09-11T16:45:54.392Z,21.36
2022-09-11T16:48:20.840Z,21.34
2022-09-11T16:50:54.563Z,21.35
2022-09-11T16:53:25.219Z,21.29
2022-09-11T16:55:51.949Z,21.23
2022-09-11T16:58:18.261Z,21.05
2022-09-11T17:00:44.647Z,21.02
2022-09-11T17:03:11.735Z,20.97
2022-09-11T17:05:38.087Z,20.84
2022-09-11T17:08:04.706Z,20.68
2022-09-11T17:10:31.078Z,20.60
2022-09-11T17:12:57.402Z,20.51
2022-09-11T17:15:23.755Z,20.40
2022-09-11T17:17:50.107Z,20.28
2022-09-11T17:20:16.468Z,20.06
2022-09-11T17:22:42.819Z,19.97
2022-09-11T17:25:09.139Z,19.86
2022-09-11T17:27:35.478Z,19.69
2022-09-11T17:30:03.644Z,19.61
2022-09-11T17:32:29.972Z,19.50
2022-09-11T17:34:57.817Z,19.46
2022-09-11T17:37:24.603Z,19.28
2022-09-11T17:39:50.963Z,19.16
2022-09-11T17:42:17.276Z,19.08
2022-09-11T17:44:43.608Z,18.97
2022-09-11T17:47:09.946Z,18.90
2022-09-11T17:49:36.257Z,18.72
2022-09-11T17:52:03.007Z,18.67
2022-09-11T17:54:29.335Z,18.50
2022-09-11T17:56:56.773Z,18.50
2022-09-11T17:59:23.101Z,18.45
2022-09-11T18:01:49.506Z,18.32
2022-09-11T18:04:15.875Z,18.30
2022-09-11T18:06:42.384Z,18.21
2022-09-11T18:09:13.771Z,18.11
2022-09-11T18:11:41.902Z,18.01
2022-09-11T18:14:09.094Z,17.91
2022-09-11T18:16:36.171Z,17.80
2022-09-11T18:19:03.092Z,17.64
2022-09-11T18:21:29.780Z,17.52
2022-09-11T18:23:56.085Z,17.43
2022-09-11T18:26:25.043Z,17.41
2022-09-11T18:29:00.090Z,17.29
2022-09-11T18:31:27.873Z,17.27
2022-09-11T18:34:00.275Z,17.14
2022-09-11T18:36:28.560Z,17.12
2022-09-11T18:38:57.624Z,17.04
2022-09-11T18:41:24.509Z,17.00
2022-09-11T18:43:55.245Z,16.86
2022-09-11T18:46:21.773Z,16.87
2022-09-11T18:48:48.542Z,16.81
2022-09-11T18:51:14.859Z,16.72
2022-09-11T18:53:41.296Z,16.73
2022-09-11T18:56:07.642Z,16.71
2022-09-11T18:58:36.913Z,16.66
2022-09-11T19:01:08.302Z,16.63
2022-09-11T19:03:35.093Z,16.53
2022-09-11T19:06:06.426Z,16.35
2022-09-11T19:08:33.253Z,16.19
2022-09-11T19:11:00.320Z,16.11
2022-09-11T19:13:26.674Z,16.15
2022-09-11T19:15:57.264Z,16.15
2022-09-11T19:18:23.664Z,16.15
2022-09-11T19:21:20.084Z,16.14
2022-09-11T19:23:48.685Z,16.14
2022-09-11T19:26:17.812Z,16.17
2022-09-11T19:28:45.289Z,16.18
2022-09-11T19:31:17.541Z,16.18
2022-09-11T19:33:44.006Z,16.12
2022-09-11T19:36:16.447Z,16.18
2022-09-11T19:38:44.579Z,16.21
2022-09-11T19:41:13.177Z,16.21
2022-09-11T19:43:40.976Z,16.24
2022-09-11T19:46:16.178Z,16.15
2022-09-11T19:48:43.198Z,16.17
2022-09-11T19:51:17.271Z,16.25
2022-09-11T19:53:44.140Z,16.26
2022-09-11T19:56:11.781Z,16.20
2022-09-11T19:58:38.849Z,16.26
2022-09-11T20:01:07.912Z,16.28
2022-09-11T20:03:35.829Z,16.26
2022-09-11T20:06:02.594Z,16.25
2022-09-11T20:08:28.912Z,16.17
2022-09-11T20:10:55.521Z,16.10
2022-09-11T20:13:22.036Z,16.20
2022-09-11T20:15:48.393Z,16.17
2022-09-11T20:18:14.727Z,16.21
2022-09-11T20:20:45.246Z,16.19
2022-09-11T20:23:11.858Z,16.11
2022-09-11T20:25:38.404Z,16.14
2022-09-11T20:28:04.760Z,16.10
2022-09-11T20:30:32.672Z,16.06
2022-09-11T20:33:00.588Z,16.02
2022-09-11T20:35:27.479Z,15.98
2022-09-11T20:37:53.923Z,15.85
2022-09-11T20:40:20.692Z,15.88
2022-09-11T20:42:47.087Z,15.74
2022-09-11T20:45:13.514Z,15.78
2022-09-11T20:47:39.828Z,15.68
2022-09-11T20:50:06.929Z,15.62
2022-09-11T20:52:36.104Z,15.63
2022-09-11T20:55:06.271Z,15.60
2022-09-11T20:57:32.858Z,15.48
2022-09-11T21:00:00.605Z,15.40
2022-09-11T21:02:27.252Z,15.44
2022-09-11T21:04:53.591Z,15.44
2022-09-11T21:07:19.899Z,15.39
2022-09-11T21:09:46.195Z,15.33
2022-09-11T21:12:12.612Z,15.33
2022-09-11T21:14:38.981Z,15.30
2022-09-11T21:17:05.288Z,15.25
2022-09-11T21:19:31.635Z,15.18
2022-09-11T21:21:58.003Z,15.10
2022-09-11T21:24:24.356Z,15.11
2022-09-11T21:26:50.712Z,15.11
2022-09-11T21:29:17.069Z,15.07
2022-09-11T21:31:43.412Z,14.99
2022-09-11T21:34:10.057Z,14.93
2022-09-11T21:36:36.456Z,14.98
2022-09-11T21:39:03.708Z,14.96
2022-09-11T21:41:30.049Z,14.98
2022-09-11T21:43:56.371Z,14.96
2022-09-11T21:46:22.785Z,14.93
2022-09-11T21:48:49.148Z,14.87
2022-09-11T21:51:18.248Z,14.83
2022-09-11T21:53:46.375Z,14.79
2022-09-11T21:56:38.838Z,14.75
2022-09-11T21:59:05.148Z,14.69
2022-09-11T22:01:31.529Z,14.65
2022-09-11T22:03:58.732Z,14.59
2022-09-11T22:06:25.062Z,14.48
2022-09-11T22:08:51.720Z,14.49
2022-09-11T22:11:18.058Z,14.45
2022-09-11T22:13:44.517Z,14.38
2022-09-11T22:16:13.686Z,14.38
2022-09-11T22:18:40.838Z,14.24
2022-09-11T22:21:08.516Z,14.22
2022-09-11T22:23:34.946Z,14.09
2022-09-11T22:26:06.488Z,14.03
2022-09-11T22:28:32.967Z,13.98
2022-09-11T22:30:59.364Z,13.94
2022-09-11T22:33:25.713Z,13.97
2022-09-11T22:35:52.049Z,13.87
2022-09-11T22:38:18.367Z,13.93
2022-09-11T22:40:44.708Z,13.83
2022-09-11T22:43:11.079Z,13.79
2022-09-11T22:45:37.463Z,13.69
2022-09-11T22:48:03.885Z,13.71
2022-09-11T22:50:30.199Z,13.68
2022-09-11T22:52:56.564Z,13.59
2022-09-11T22:55:22.920Z,13.55
2022-09-11T22:57:49.236Z,13.55
2022-09-11T23:00:15.702Z,13.54
2022-09-11T23:02:42.074Z,13.50
2022-09-11T23:05:08.763Z,13.41
2022-09-11T23:07:35.079Z,13.42
2022-09-11T23:10:01.685Z,13.36
2022-09-11T23:12:28.026Z,13.24
2022-09-11T23:14:54.346Z,13.27
2022-09-11T23:17:20.713Z,13.18
2022-09-11T23:19:47.024Z,13.18
2022-09-11T23:22:13.379Z,13.14
2022-09-11T23:24:39.720Z,13.13
2022-09-11T23:27:06.019Z,13.01
2022-09-11T23:29:32.332Z,13.03
2022-09-11T23:31:58.801Z,13.00
2022-09-11T23:34:25.159Z,13.02
2022-09-11T23:36:51.455Z,12.87
2022-09-11T23:39:17.824Z,12.89
2022-09-11T23:41:44.188Z,12.91
2022-09-11T23:44:10.544Z,12.83
2022-09-11T23:46:36.997Z,12.86
2022-09-11T23:49:03.633Z,12.82
2022-09-11T23:51:29.979Z,12.78
2022-09-11T23:53:56.303Z,12.74
2022-09-11T23:56:22.651Z,12.70
2022-09-11T23:58:49.326Z,12.66
